createdAt,value
2023-02-14T00:01:40.278Z,103329.28
2023-02-14T00:04:07.910Z,103329.13
2023-02-14T00:06:35.514Z,103330.78
2023-02-14T00:09:02.413Z,103329.63
2023-02-14T00:11:30.021Z,103324.38
2023-02-14T00:14:16.164Z,103325.25
2023-02-14T00:16:43.813Z,103324.38
2023-02-14T00:19:11.742Z,103320.06
2023-02-14T00:21:38.894Z,103320.91
2023-02-14T00:24:07.345Z,103321.69
2023-02-14T00:26:34.853Z,103323.50
2023-02-14T00:29:02.165Z,103309.53
2023-02-14T00:31:28.912Z,103311.31
2023-02-14T00:33:55.666Z,103321.84
2023-02-14T00:36:22.718Z,103315.78
2023-02-14T00:38:49.436Z,103319.75
2023-02-14T00:41:19.281Z,103318.00
2023-02-14T00:43:50.580Z,103305.09
2023-02-14T00:46:18.015Z,103317.47
2023-02-14T00:48:45.853Z,103313.13
2023-02-14T00:51:13.235Z,103319.19
2023-02-14T00:53:40.128Z,103315.63
2023-02-14T00:56:07.585Z,103312.22
2023-02-14T00:58:34.610Z,103315.78
2023-02-14T01:01:01.688Z,103320.00
2023-02-14T01:03:28.806Z,103324.22
2023-02-14T01:05:55.387Z,103322.59
2023-02-14T01:08:22.181Z,103326.88
2023-02-14T01:10:48.834Z,103327.53
2023-02-14T01:13:15.877Z,103322.28
2023-02-14T01:15:47.120Z,103328.19
2023-02-14T01:18:14.646Z,103331.44
2023-02-14T01:20:41.793Z,103333.22
2023-02-14T01:23:08.568Z,103321.06
2023-02-14T01:25:36.977Z,103329.66
2023-02-14T01:28:04.546Z,103321.50
2023-02-14T01:30:31.680Z,103318.00
2023-02-14T01:32:58.693Z,103321.34
2023-02-14T01:35:25.340Z,103318.66
2023-02-14T01:37:52.310Z,103327.19
2023-02-14T01:40:19.338Z,103318.44
2023-02-14T01:42:46.055Z,103321.69
2023-02-14T01:45:18.339Z,103318.28
2023-02-14T01:47:46.926Z,103311.16
2023-02-14T01:50:18.272Z,103316.03
2023-02-14T01:52:50.997Z,103306.81
2023-02-14T01:55:29.218Z,103301.44
2023-02-14T01:57:59.697Z,103304.84
2023-02-14T02:00:45.785Z,103300.56
2023-02-14T02:03:13.807Z,103297.72
2023-02-14T02:05:44.055Z,103294.16
2023-02-14T02:08:11.855Z,103306.28
2023-02-14T02:10:39.084Z,103299.50
2023-02-14T02:13:09.231Z,103296.91
2023-02-14T02:15:42.130Z,103303.69
2023-02-14T02:18:13.941Z,103301.28
2023-02-14T02:20:46.007Z,103301.94
2023-02-14T02:23:31.751Z,103289.00
2023-02-14T02:26:04.774Z,103298.34
2023-02-14T02:28:50.039Z,103296.59
2023-02-14T02:31:29.227Z,103291.31
2023-02-14T02:33:58.995Z,103288.66
2023-02-14T02:36:25.906Z,103291.25
2023-02-14T02:38:56.180Z,103280.91
2023-02-14T02:41:26.643Z,103272.97
2023-02-14T02:43:57.002Z,103275.19
2023-02-14T02:46:43.017Z,103277.78
2023-02-14T02:49:36.997Z,103273.59
2023-02-14T02:52:26.319Z,103271.75
2023-02-14T02:54:58.783Z,103269.97
2023-02-14T02:57:29.509Z,103268.31
2023-02-14T02:59:57.474Z,103271.66
2023-02-14T03:02:24.524Z,103271.66
2023-02-14T03:04:54.112Z,103262.81
2023-02-14T03:07:35.320Z,103268.72
2023-02-14T03:10:07.677Z,103273.91
2023-02-14T03:12:37.440Z,103275.59
2023-02-14T03:15:23.628Z,103277.28
2023-02-14T03:17:59.855Z,103272.13
2023-02-14T03:20:56.251Z,103273.59
2023-02-14T03:23:28.976Z,103277.78
2023-02-14T03:26:07.791Z,103273.25
2023-02-14T03:28:42.967Z,103272.03
2023-02-14T03:31:10.193Z,103267.75
2023-02-14T03:33:58.733Z,103271.91
2023-02-14T03:36:35.064Z,103270.97
2023-02-14T03:39:11.456Z,103277.03
2023-02-14T03:41:43.836Z,103284.84
2023-02-14T03:44:11.460Z,103284.84
2023-02-14T03:46:46.545Z,103283.78
2023-02-14T03:49:17.557Z,103282.03
2023-02-14T03:51:47.177Z,103288.81
2023-02-14T03:54:15.218Z,103282.56
2023-02-14T03:56:47.872Z,103285.97
2023-02-14T03:59:17.683Z,103285.66
2023-02-14T04:01:48.149Z,103287.22
2023-02-14T04:04:17.848Z,103281.38
2023-02-14T04:06:45.420Z,103282.97
2023-02-14T04:09:12.365Z,103285.81
2023-02-14T04:11:39.407Z,103286.44
2023-02-14T04:14:06.140Z,103281.88
2023-02-14T04:16:56.228Z,103287.06
2023-02-14T04:19:23.429Z,103285.47
2023-02-14T04:21:51.629Z,103288.84
2023-02-14T04:24:18.992Z,103288.84
2023-02-14T04:27:05.650Z,103285.38
2023-02-14T04:29:32.236Z,103282.72
2023-02-14T04:31:58.883Z,103273.22
2023-02-14T04:34:25.668Z,103276.38
2023-02-14T04:36:52.379Z,103268.63
2023-02-14T04:39:19.264Z,103274.06
2023-02-14T04:41:46.245Z,103273.00
2023-02-14T04:44:12.813Z,103267.81
2023-02-14T04:46:39.479Z,103262.66
2023-02-14T04:49:06.158Z,103261.03
2023-02-14T04:51:32.899Z,103253.25
2023-02-14T04:53:59.655Z,103250.69
2023-02-14T04:56:27.102Z,103254.16
2023-02-14T04:58:54.693Z,103253.44
2023-02-14T05:01:21.566Z,103249.09
2023-02-14T05:03:48.216Z,103251.84
2023-02-14T05:06:15.329Z,103248.38
2023-02-14T05:08:42.107Z,103242.28
2023-02-14T05:11:09.068Z,103251.00
2023-02-14T05:13:35.778Z,103249.09
2023-02-14T05:16:02.925Z,103248.19
2023-02-14T05:18:29.992Z,103241.31
2023-02-14T05:20:56.846Z,103236.94
2023-02-14T05:23:24.235Z,103237.84
2023-02-14T05:25:51.990Z,103238.56
2023-02-14T05:28:19.562Z,103237.69
2023-02-14T05:30:47.960Z,103238.56
2023-02-14T05:33:15.162Z,103239.44
2023-02-14T05:35:42.092Z,103235.72
2023-02-14T05:38:09.083Z,103230.63
2023-02-14T05:40:35.669Z,103233.31
2023-02-14T05:43:02.700Z,103226.44
2023-02-14T05:45:29.283Z,103228.94
2023-02-14T05:47:55.799Z,103229.81
2023-02-14T05:50:22.607Z,103225.38
2023-02-14T05:52:49.586Z,103215.94
2023-02-14T05:55:16.269Z,103227.69
2023-02-14T05:57:43.778Z,103226.09
2023-02-14T06:00:10.692Z,103226.91
2023-02-14T06:02:37.678Z,103235.78
2023-02-14T06:05:04.955Z,103240.16
2023-02-14T06:07:31.580Z,103235.88
2023-02-14T06:09:58.679Z,103238.38
2023-02-14T06:12:25.616Z,103239.03
2023-02-14T06:14:52.535Z,103239.75
2023-02-14T06:17:19.510Z,103246.53
2023-02-14T06:19:46.248Z,103234.31
2023-02-14T06:22:12.988Z,103235.38
2023-02-14T06:24:39.946Z,103241.28
2023-02-14T06:27:06.776Z,103241.13
2023-02-14T06:29:33.432Z,103239.56
2023-02-14T06:32:05.769Z,103244.66
2023-02-14T06:34:33.646Z,103250.19
2023-02-14T06:37:00.681Z,103260.19
2023-02-14T06:39:27.948Z,103258.38
2023-02-14T06:41:54.540Z,103265.34
2023-02-14T06:44:21.315Z,103260.81
2023-02-14T06:46:48.312Z,103265.72
2023-02-14T06:49:15.260Z,103268.38
2023-02-14T06:51:42.014Z,103270.00
2023-02-14T06:54:09.031Z,103268.38
2023-02-14T06:56:35.932Z,103272.66
2023-02-14T06:59:03.038Z,103269.84
2023-02-14T07:01:29.972Z,103268.84
2023-02-14T07:03:56.553Z,103263.66
2023-02-14T07:06:23.368Z,103268.03
2023-02-14T07:08:50.502Z,103269.84
2023-02-14T07:11:17.954Z,103276.75
2023-02-14T07:13:44.937Z,103269.66
2023-02-14T07:16:11.863Z,103263.03
2023-02-14T07:18:39.096Z,103258.75
2023-02-14T07:21:05.654Z,103260.56
2023-02-14T07:23:33.023Z,103262.31
2023-02-14T07:26:00.137Z,103268.72
2023-02-14T07:28:27.387Z,103265.34
2023-02-14T07:30:54.124Z,103260.19
2023-02-14T07:33:20.890Z,103267.13
2023-02-14T07:35:48.672Z,103265.69
2023-02-14T07:38:15.439Z,103260.53
2023-02-14T07:40:42.347Z,103265.84
2023-02-14T07:43:09.285Z,103269.41
2023-02-14T07:45:35.847Z,103268.00
2023-02-14T07:48:02.715Z,103268.00
2023-02-14T07:50:29.842Z,103272.38
2023-02-14T07:52:56.873Z,103268.16
2023-02-14T07:55:25.157Z,103271.72
2023-02-14T07:57:51.977Z,103276.25
2023-02-14T08:00:18.979Z,103279.75
2023-02-14T08:02:46.155Z,103271.34
2023-02-14T08:05:14.763Z,103275.97
2023-02-14T08:07:43.060Z,103273.63
2023-02-14T08:10:12.858Z,103274.03
2023-02-14T08:12:58.778Z,103265.66
2023-02-14T08:15:49.145Z,103269.38
2023-02-14T08:18:17.483Z,103267.94
2023-02-14T08:20:45.111Z,103269.06
2023-02-14T08:23:12.317Z,103268.44
2023-02-14T08:25:39.727Z,103263.47
2023-02-14T08:28:06.889Z,103262.94
2023-02-14T08:30:36.237Z,103261.63
2023-02-14T08:33:03.252Z,103263.78
2023-02-14T08:35:30.141Z,103262.72
2023-02-14T08:37:56.949Z,103263.09
2023-02-14T08:40:24.161Z,103272.00
2023-02-14T08:42:50.915Z,103264.31
2023-02-14T08:45:18.185Z,103270.88
2023-02-14T08:47:45.705Z,103277.06
2023-02-14T08:50:14.644Z,103273.25
2023-02-14T08:52:43.763Z,103271.78
2023-02-14T08:55:11.687Z,103273.88
2023-02-14T08:57:38.248Z,103277.59
2023-02-14T09:00:06.327Z,103277.91
2023-02-14T09:02:33.285Z,103280.94
2023-02-14T09:05:00.907Z,103278.50
2023-02-14T09:07:28.355Z,103272.16
2023-02-14T09:09:54.961Z,103265.59
2023-02-14T09:12:22.172Z,103260.13
2023-02-14T09:14:49.359Z,103256.84
2023-02-14T09:17:16.603Z,103250.09
2023-02-14T09:19:43.662Z,103252.97
2023-02-14T09:22:11.245Z,103243.63
2023-02-14T09:24:39.257Z,103247.41
2023-02-14T09:27:06.179Z,103239.63
2023-02-14T09:29:32.871Z,103236.63
2023-02-14T09:32:00.380Z,103226.53
2023-02-14T09:34:28.543Z,103230.09
2023-02-14T09:37:14.083Z,103235.56
2023-02-14T09:39:40.896Z,103229.16
2023-02-14T09:42:27.188Z,103223.41
2023-02-14T09:44:54.071Z,103231.59
2023-02-14T09:47:20.818Z,103221.88
2023-02-14T09:49:48.963Z,103227.06
2023-02-14T09:52:18.433Z,103226.41
2023-02-14T09:54:48.920Z,103219.75
2023-02-14T09:57:34.107Z,103226.25
2023-02-14T10:00:23.149Z,103221.00
2023-02-14T10:02:52.883Z,103220.06
2023-02-14T10:05:24.590Z,103219.34
2023-02-14T10:07:54.228Z,103215.88
2023-02-14T10:10:39.657Z,103222.81
2023-02-14T10:13:15.748Z,103220.31
2023-02-14T10:15:48.493Z,103217.25
2023-02-14T10:18:16.572Z,103221.41
2023-02-14T10:20:45.142Z,103219.84
2023-02-14T10:23:32.224Z,103223.50
2023-02-14T10:26:04.296Z,103213.31
2023-02-14T10:28:33.180Z,103212.69
2023-02-14T10:31:12.221Z,103212.78
2023-02-14T10:33:42.218Z,103210.50
2023-02-14T10:36:18.493Z,103212.75
2023-02-14T10:38:54.875Z,103207.47
2023-02-14T10:41:22.465Z,103204.72
2023-02-14T10:44:03.999Z,103199.63
2023-02-14T10:46:34.795Z,103199.63
2023-02-14T10:49:13.807Z,103197.66
2023-02-14T10:51:40.723Z,103189.66
2023-02-14T10:54:39.723Z,103190.53
2023-02-14T10:57:25.038Z,103192.59
2023-02-14T11:00:02.843Z,103201.50
2023-02-14T11:02:32.472Z,103186.78
2023-02-14T11:05:00.240Z,103190.00
2023-02-14T11:07:27.388Z,103178.69
2023-02-14T11:09:57.560Z,103175.25
2023-02-14T11:12:40.946Z,103168.47
2023-02-14T11:15:10.279Z,103168.47
2023-02-14T11:17:37.949Z,103165.25
2023-02-14T11:20:20.706Z,103169.13
2023-02-14T11:22:47.406Z,103165.38
2023-02-14T11:25:21.387Z,103162.03
2023-02-14T11:27:50.981Z,103161.88
2023-02-14T11:30:25.227Z,103159.34
2023-02-14T11:32:55.161Z,103168.09
2023-02-14T11:35:27.584Z,103164.75
2023-02-14T11:37:56.242Z,103160.66
2023-02-14T11:40:29.200Z,103156.41
2023-02-14T11:43:13.347Z,103157.22
2023-02-14T11:45:42.409Z,103151.28
2023-02-14T11:48:38.719Z,103142.59
2023-02-14T11:51:09.145Z,103137.38
2023-02-14T11:53:39.742Z,103130.75
2023-02-14T11:56:06.767Z,103132.81
2023-02-14T11:58:39.051Z,103129.25
2023-02-14T12:01:05.897Z,103127.69
2023-02-14T12:03:46.597Z,103115.56
2023-02-14T12:06:21.941Z,103119.22
2023-02-14T12:08:49.239Z,103116.81
2023-02-14T12:11:20.973Z,103109.22
2023-02-14T12:13:56.052Z,103107.34
2023-02-14T12:16:28.699Z,103108.38
2023-02-14T12:19:17.583Z,103094.56
2023-02-14T12:21:48.286Z,103094.91
2023-02-14T12:24:18.764Z,103092.13
2023-02-14T12:26:49.751Z,103073.03
2023-02-14T12:29:20.974Z,103067.00
2023-02-14T12:31:49.544Z,103066.69
2023-02-14T12:34:18.856Z,103063.13
2023-02-14T12:37:04.971Z,103062.13
2023-02-14T12:39:50.646Z,103061.63
2023-02-14T12:42:17.945Z,103058.94
2023-02-14T12:44:50.877Z,103053.13
2023-02-14T12:47:20.459Z,103051.59
2023-02-14T12:50:10.854Z,103048.22
2023-02-14T12:52:47.024Z,103040.47
2023-02-14T12:55:32.834Z,103050.03
2023-02-14T12:58:05.451Z,103053.00
2023-02-14T13:00:34.890Z,103048.28
2023-02-14T13:03:07.597Z,103042.13
2023-02-14T13:05:45.467Z,103040.53
2023-02-14T13:08:30.739Z,103032.69
2023-02-14T13:10:57.961Z,103033.75
2023-02-14T13:13:45.677Z,103024.34
2023-02-14T13:16:18.586Z,103025.69
2023-02-14T13:19:00.669Z,103011.78
2023-02-14T13:21:30.742Z,103018.69
2023-02-14T13:24:18.393Z,103004.72
2023-02-14T13:26:48.560Z,103001.59
2023-02-14T13:29:17.799Z,102998.53
2023-02-14T13:31:45.460Z,103006.56
2023-02-14T13:34:24.329Z,102990.91
2023-02-14T13:36:51.601Z,102995.25
2023-02-14T13:39:40.163Z,102993.78
2023-02-14T13:42:07.331Z,102986.75
2023-02-14T13:44:41.873Z,102994.63
2023-02-14T13:47:16.548Z,102987.00
2023-02-14T13:49:49.168Z,102987.00
2023-02-14T13:52:36.522Z,102980.97
2023-02-14T13:55:06.170Z,102977.69
2023-02-14T13:57:37.432Z,102984.72
2023-02-14T14:00:19.839Z,102975.31
2023-02-14T14:02:47.830Z,102977.31
2023-02-14T14:05:29.764Z,102974.97
2023-02-14T14:08:16.705Z,102971.84
2023-02-14T14:10:45.378Z,102971.97
2023-02-14T14:13:31.243Z,102967.88
2023-02-14T14:16:17.026Z,102962.84
2023-02-14T14:18:44.193Z,102965.75
2023-02-14T14:21:15.379Z,102960.59
2023-02-14T14:23:42.552Z,102951.97
2023-02-14T14:26:27.988Z,102948.66
2023-02-14T14:28:55.403Z,102947.06
2023-02-14T14:31:22.481Z,102950.69
2023-02-14T14:33:57.377Z,102945.78
2023-02-14T14:36:24.473Z,102935.66
2023-02-14T14:38:53.497Z,102937.28
2023-02-14T14:41:27.444Z,102935.75
2023-02-14T14:43:54.991Z,102935.47
2023-02-14T14:46:22.482Z,102933.81
2023-02-14T14:48:51.121Z,102923.25
2023-02-14T14:51:22.931Z,102933.84
2023-02-14T14:53:56.585Z,102925.19
2023-02-14T14:56:25.604Z,102920.22
2023-02-14T14:58:52.761Z,102909.06
2023-02-14T15:01:30.429Z,102906.59
2023-02-14T15:04:12.315Z,102893.53
2023-02-14T15:06:39.358Z,102897.94
2023-02-14T15:09:13.666Z,102892.84
2023-02-14T15:12:00.210Z,102896.56
2023-02-14T15:14:28.936Z,102893.06
2023-02-14T15:17:05.490Z,102887.19
2023-02-14T15:19:41.702Z,102888.31
2023-02-14T15:22:21.036Z,102883.06
2023-02-14T15:24:48.819Z,102877.78
2023-02-14T15:27:18.149Z,102879.63
2023-02-14T15:29:55.499Z,102870.81
2023-02-14T15:32:23.016Z,102865.50
2023-02-14T15:34:50.016Z,102870.78
2023-02-14T15:37:18.294Z,102869.06
2023-02-14T15:39:47.854Z,102868.16
2023-02-14T15:42:22.928Z,102876.09
2023-02-14T15:44:49.929Z,102879.47
2023-02-14T15:47:17.376Z,102875.78
2023-02-14T15:49:46.578Z,102880.81
2023-02-14T15:52:15.324Z,102876.06
2023-02-14T15:54:47.372Z,102879.09
2023-02-14T15:57:34.009Z,102882.97
2023-02-14T16:00:00.846Z,102882.59
2023-02-14T16:02:38.125Z,102877.03
2023-02-14T16:05:07.319Z,102885.53
2023-02-14T16:07:34.900Z,102883.44
2023-02-14T16:10:19.947Z,102887.56
2023-02-14T16:12:55.406Z,102893.41
2023-02-14T16:15:28.074Z,102890.44
2023-02-14T16:17:54.876Z,102888.34
2023-02-14T16:20:22.741Z,102895.78
2023-02-14T16:22:50.550Z,102892.75
2023-02-14T16:25:17.510Z,102897.75
2023-02-14T16:27:44.370Z,102895.00
2023-02-14T16:30:17.874Z,102896.56
2023-02-14T16:32:50.083Z,102885.84
2023-02-14T16:35:19.761Z,102891.88
2023-02-14T16:37:47.629Z,102887.50
2023-02-14T16:40:15.860Z,102883.81
2023-02-14T16:42:43.086Z,102887.88
2023-02-14T16:45:19.156Z,102884.13
2023-02-14T16:47:48.758Z,102888.16
2023-02-14T16:50:15.868Z,102895.66
2023-02-14T16:52:45.125Z,102895.59
2023-02-14T16:55:16.346Z,102902.47
2023-02-14T16:57:45.793Z,102897.00
2023-02-14T17:00:12.899Z,102905.44
2023-02-14T17:02:39.730Z,102902.66
2023-02-14T17:05:06.791Z,102905.88
2023-02-14T17:07:33.978Z,102907.34
2023-02-14T17:10:05.104Z,102904.41
2023-02-14T17:12:35.057Z,102915.28
2023-02-14T17:15:08.340Z,102915.81
2023-02-14T17:17:36.238Z,102909.44
2023-02-14T17:20:04.639Z,102913.41
2023-02-14T17:22:32.048Z,102918.28
2023-02-14T17:24:58.912Z,102918.94
2023-02-14T17:27:25.655Z,102922.97
2023-02-14T17:29:52.871Z,102924.38
2023-02-14T17:32:19.821Z,102928.31
2023-02-14T17:34:47.024Z,102927.09
2023-02-14T17:37:14.118Z,102938.06
2023-02-14T17:39:40.846Z,102927.41
2023-02-14T17:42:10.430Z,102939.41
2023-02-14T17:44:39.074Z,102937.44
2023-02-14T17:47:06.085Z,102928.59
2023-02-14T17:49:32.725Z,102935.34
2023-02-14T17:51:59.831Z,102935.13
2023-02-14T17:54:26.515Z,102931.41
2023-02-14T17:56:53.398Z,102925.03
2023-02-14T17:59:20.447Z,102929.09
2023-02-14T18:01:47.662Z,102922.69
2023-02-14T18:04:14.395Z,102928.66
2023-02-14T18:06:42.839Z,102929.31
2023-02-14T18:09:10.054Z,102926.34
2023-02-14T18:11:38.669Z,102923.53
2023-02-14T18:14:05.337Z,102923.13
2023-02-14T18:16:32.176Z,102917.78
2023-02-14T18:19:01.929Z,102921.09
2023-02-14T18:21:31.981Z,102922.69
2023-02-14T18:24:00.152Z,102918.91
2023-02-14T18:26:27.383Z,102924.81
2023-02-14T18:28:55.063Z,102917.63
2023-02-14T18:31:21.833Z,102917.47
2023-02-14T18:33:50.162Z,102915.63
2023-02-14T18:36:19.467Z,102908.53
2023-02-14T18:38:47.010Z,102911.94
2023-02-14T18:41:18.424Z,102903.09
2023-02-14T18:43:45.159Z,102909.00
2023-02-14T18:46:17.300Z,102904.50
2023-02-14T18:48:44.426Z,102902.59
2023-02-14T18:51:12.959Z,102898.84
2023-02-14T18:53:40.556Z,102902.25
2023-02-14T18:56:09.927Z,102898.47
2023-02-14T18:58:36.666Z,102898.47
2023-02-14T19:01:07.814Z,102900.13
2023-02-14T19:03:34.759Z,102901.66
2023-02-14T19:06:02.237Z,102892.69
2023-02-14T19:08:36.319Z,102880.28
2023-02-14T19:11:09.786Z,102900.91
2023-02-14T19:13:36.422Z,102885.34
2023-02-14T19:16:14.259Z,102888.50
2023-02-14T19:18:41.484Z,102887.44
2023-02-14T19:21:12.639Z,102884.56
2023-02-14T19:23:39.512Z,102880.09
2023-02-14T19:26:13.470Z,102887.88
2023-02-14T19:28:41.069Z,102874.78
2023-02-14T19:31:08.935Z,102873.56
2023-02-14T19:33:54.389Z,102866.75
2023-02-14T19:36:22.660Z,102875.22
2023-02-14T19:38:50.579Z,102867.13
2023-02-14T19:41:19.291Z,102868.81
2023-02-14T19:43:47.631Z,102873.06
2023-02-14T19:46:15.551Z,102871.16
2023-02-14T19:48:44.551Z,102868.44
2023-02-14T19:51:18.516Z,102856.88
2023-02-14T19:53:46.654Z,102854.94
2023-02-14T19:56:17.938Z,102857.22
2023-02-14T19:58:45.299Z,102859.63
2023-02-14T20:01:20.745Z,102863.03
2023-02-14T20:03:47.741Z,102854.97
2023-02-14T20:06:15.436Z,102857.44
2023-02-14T20:08:42.107Z,102855.78
2023-02-14T20:11:20.048Z,102847.97
2023-02-14T20:13:46.970Z,102846.81
2023-02-14T20:16:13.799Z,102841.63
2023-02-14T20:18:40.525Z,102835.78
2023-02-14T20:21:14.635Z,102836.84
2023-02-14T20:23:41.395Z,102845.81
2023-02-14T20:26:14.849Z,102837.34
2023-02-14T20:28:43.156Z,102840.03
2023-02-14T20:31:11.098Z,102834.84
2023-02-14T20:33:38.910Z,102834.06
2023-02-14T20:36:06.223Z,102834.06
2023-02-14T20:38:33.514Z,102837.47
2023-02-14T20:41:10.493Z,102837.47
2023-02-14T20:43:37.672Z,102844.31
2023-02-14T20:46:06.478Z,102840.78
2023-02-14T20:48:34.426Z,102835.59
2023-02-14T20:51:11.285Z,102831.22
2023-02-14T20:53:39.205Z,102833.81
2023-02-14T20:56:06.877Z,102829.44
2023-02-14T20:58:35.395Z,102832.94
2023-02-14T21:01:15.260Z,102840.50
2023-02-14T21:03:42.994Z,102838.88
2023-02-14T21:06:11.590Z,102838.63
2023-02-14T21:08:38.726Z,102843.03
2023-02-14T21:11:06.520Z,102842.16
2023-02-14T21:13:34.098Z,102842.03
2023-02-14T21:16:02.088Z,102849.88
2023-02-14T21:18:29.197Z,102851.72
2023-02-14T21:21:03.126Z,102842.16
2023-02-14T21:23:30.078Z,102850.75
2023-02-14T21:25:56.821Z,102844.47
2023-02-14T21:28:23.675Z,102839.94
2023-02-14T21:30:50.423Z,102843.41
2023-02-14T21:33:17.133Z,102843.25
2023-02-14T21:35:43.750Z,102835.91
2023-02-14T21:38:10.462Z,102833.91
2023-02-14T21:40:36.964Z,102836.25
2023-02-14T21:43:04.011Z,102831.28
2023-02-14T21:45:49.366Z,102835.25
2023-02-14T21:48:34.819Z,102829.19
2023-02-14T21:51:06.190Z,102827.41
2023-02-14T21:53:34.144Z,102832.31
2023-02-14T21:56:09.622Z,102826.72
2023-02-14T21:58:37.125Z,102824.94
2023-02-14T22:04:29.920Z,102817.25
2023-02-14T22:06:57.122Z,102819.63
2023-02-14T22:09:24.577Z,102824.78
2023-02-14T22:11:51.339Z,102820.31
2023-02-14T22:14:18.511Z,102816.84
2023-02-14T22:16:45.584Z,102819.19
2023-02-14T22:19:13.453Z,102812.28
2023-02-14T22:21:40.119Z,102807.09
2023-02-14T22:24:06.966Z,102808.44
2023-02-14T22:26:38.514Z,102810.22
2023-02-14T22:29:05.594Z,102810.06
2023-02-14T22:31:33.672Z,102799.72
2023-02-14T22:34:00.753Z,102804.91
2023-02-14T22:36:27.506Z,102804.06
2023-02-14T22:38:54.613Z,102807.63
2023-02-14T22:41:22.433Z,102808.16
2023-02-14T22:43:49.638Z,102802.81
2023-02-14T22:46:21.139Z,102807.06
2023-02-14T22:48:49.170Z,102800.91
2023-02-14T22:51:28.160Z,102800.00
2023-02-14T22:53:56.978Z,102806.06
2023-02-14T22:56:23.904Z,102794.91
2023-02-14T22:58:58.454Z,102800.72
2023-02-14T23:01:26.583Z,102797.22
2023-02-14T23:03:54.767Z,102791.78
2023-02-14T23:06:22.512Z,102796.81
2023-02-14T23:08:49.528Z,102798.22
2023-02-14T23:11:17.904Z,102791.34
2023-02-14T23:14:04.080Z,102786.69
2023-02-14T23:16:49.388Z,102789.28
2023-02-14T23:19:36.171Z,102790.88
2023-02-14T23:22:10.367Z,102784.91
2023-02-14T23:24:37.037Z,102791.47
2023-02-14T23:27:04.522Z,102784.38
2023-02-14T23:29:31.700Z,102784.31
2023-02-14T23:31:58.414Z,102784.38
2023-02-14T23:34:27.745Z,102791.03
2023-02-14T23:36:54.790Z,102785.13
2023-02-14T23:39:22.044Z,102779.75
2023-02-14T23:41:49.226Z,102784.81
2023-02-14T23:44:20.722Z,102784.09
2023-02-14T23:46:49.670Z,102781.16
2023-02-14T23:49:16.893Z,102781.28
2023-02-14T23:51:45.397Z,102777.59
2023-02-14T23:54:12.593Z,102772.56
2023-02-14T23:56:40.141Z,102772.25
2023-02-14T23:59:08.053Z,102772.50
